createdAt,value
2018-06-14T00:00:21.326Z,0.00
2018-06-14T00:01:21.311Z,0.00
2018-06-14T00:02:21.300Z,0.00
2018-06-14T00:03:21.278Z,0.00
2018-06-14T00:04:21.269Z,0.00
2018-06-14T00:05:21.261Z,0.00
2018-06-14T00:06:21.251Z,0.00
2018-06-14T00:07:21.228Z,0.00
2018-06-14T00:08:21.207Z,0.00
2018-06-14T00:09:21.187Z,0.00
2018-06-14T00:10:21.180Z,0.00
2018-06-14T00:11:21.161Z,0.00
2018-06-14T00:12:21.148Z,0.00
2018-06-14T00:13:21.132Z,0.00
2018-06-14T00:14:21.114Z,0.00
2018-06-14T00:15:21.097Z,0.00
2018-06-14T00:16:21.088Z,0.00
2018-06-14T00:17:21.111Z,0.00
2018-06-14T00:18:21.063Z,0.00
2018-06-14T00:19:21.036Z,0.00
2018-06-14T00:20:21.026Z,0.00
2018-06-14T00:21:21.009Z,0.00
2018-06-14T00:22:20.998Z,0.00
2018-06-14T00:23:20.986Z,0.00
2018-06-14T00:24:20.971Z,0.00
2018-06-14T00:25:20.953Z,0.00
2018-06-14T00:26:20.938Z,0.00
2018-06-14T00:27:20.921Z,0.00
2018-06-14T00:28:20.911Z,0.00
2018-06-14T00:29:20.886Z,0.00
2018-06-14T00:30:20.870Z,0.00
2018-06-14T00:31:20.867Z,0.00
2018-06-14T00:32:20.850Z,0.00
2018-06-14T00:33:20.831Z,0.00
2018-06-14T00:34:20.825Z,0.00
2018-06-14T00:35:20.802Z,0.00
2018-06-14T00:36:20.784Z,0.00
2018-06-14T00:37:20.768Z,0.00
2018-06-14T00:38:20.752Z,0.00
2018-06-14T00:39:20.742Z,0.00
2018-06-14T00:40:20.725Z,0.00
2018-06-14T00:41:20.709Z,0.00
2018-06-14T00:42:20.695Z,0.00
2018-06-14T00:43:20.678Z,0.00
2018-06-14T00:44:20.670Z,0.00
2018-06-14T00:45:20.641Z,0.00
2018-06-14T00:46:20.642Z,0.00
2018-06-14T00:47:20.623Z,0.00
2018-06-14T00:48:20.606Z,0.00
2018-06-14T00:49:20.584Z,0.00
2018-06-14T00:50:20.577Z,0.00
2018-06-14T00:51:20.571Z,0.00
2018-06-14T00:52:20.543Z,0.00
2018-06-14T00:53:20.526Z,0.00
2018-06-14T00:54:20.507Z,0.00
2018-06-14T00:55:20.501Z,0.00
2018-06-14T00:56:20.488Z,0.00
2018-06-14T00:57:20.471Z,0.00
2018-06-14T00:58:20.451Z,0.00
2018-06-14T00:59:20.441Z,0.00
2018-06-14T01:00:20.429Z,0.00
2018-06-14T01:01:20.410Z,0.00
2018-06-14T01:02:20.454Z,0.00
2018-06-14T01:03:20.379Z,0.00
2018-06-14T01:04:20.362Z,0.00
2018-06-14T01:05:20.352Z,0.00
2018-06-14T01:06:20.428Z,0.00
2018-06-14T01:07:20.313Z,0.00
2018-06-14T01:08:20.370Z,0.00
2018-06-14T01:09:20.282Z,0.00
2018-06-14T01:10:20.365Z,0.00
2018-06-14T01:11:20.247Z,0.00
2018-06-14T01:12:20.333Z,0.00
2018-06-14T01:13:20.221Z,0.00
2018-06-14T01:14:20.259Z,0.00
2018-06-14T01:15:20.193Z,0.00
2018-06-14T01:16:20.173Z,0.00
2018-06-14T01:17:20.157Z,0.00
2018-06-14T01:18:20.214Z,0.00
2018-06-14T01:19:20.126Z,0.00
2018-06-14T01:20:20.135Z,0.00
2018-06-14T01:21:20.093Z,0.00
2018-06-14T01:22:20.196Z,0.00
2018-06-14T01:23:20.066Z,0.00
2018-06-14T01:24:20.099Z,0.00
2018-06-14T01:25:20.039Z,0.00
2018-06-14T01:26:20.067Z,0.00
2018-06-14T01:27:20.010Z,0.00
2018-06-14T01:28:20.087Z,0.00
2018-06-14T01:29:19.969Z,0.00
2018-06-14T01:30:19.963Z,0.00
2018-06-14T01:31:19.937Z,0.00
2018-06-14T01:32:19.933Z,0.00
2018-06-14T01:33:19.911Z,0.00
2018-06-14T01:34:19.892Z,0.00
2018-06-14T01:35:19.885Z,0.00
2018-06-14T01:36:19.880Z,0.00
2018-06-14T01:37:19.844Z,0.00
2018-06-14T01:38:19.879Z,0.00
2018-06-14T01:39:19.805Z,0.00
2018-06-14T01:40:19.797Z,0.00
2018-06-14T01:41:19.777Z,0.00
2018-06-14T01:42:19.764Z,0.00
2018-06-14T01:43:19.749Z,0.00
2018-06-14T01:44:19.733Z,0.00
2018-06-14T01:45:19.719Z,0.00
2018-06-14T01:46:19.700Z,0.00
2018-06-14T01:47:19.682Z,0.00
2018-06-14T01:48:19.668Z,0.00
2018-06-14T01:49:19.657Z,0.00
2018-06-14T01:50:19.640Z,0.00
2018-06-14T01:51:19.620Z,0.00
2018-06-14T01:52:19.602Z,0.00
2018-06-14T01:53:19.586Z,0.00
2018-06-14T01:54:19.567Z,0.00
2018-06-14T01:55:19.557Z,0.00
2018-06-14T01:56:19.542Z,0.00
2018-06-14T01:57:19.523Z,0.00
2018-06-14T01:58:19.508Z,0.00
2018-06-14T01:59:19.493Z,0.00
2018-06-14T02:00:19.487Z,0.00
2018-06-14T02:01:19.466Z,0.00
2018-06-14T02:02:19.447Z,0.00
2018-06-14T02:03:19.432Z,0.00
2018-06-14T02:04:19.418Z,0.00
2018-06-14T02:05:19.392Z,0.00
2018-06-14T02:06:19.386Z,0.00
2018-06-14T02:07:19.371Z,0.00
2018-06-14T02:08:19.355Z,0.00
2018-06-14T02:09:19.342Z,0.00
2018-06-14T02:10:19.326Z,0.00
2018-06-14T02:11:19.296Z,0.00
2018-06-14T02:12:19.291Z,0.00
2018-06-14T02:13:19.271Z,0.00
2018-06-14T02:14:19.254Z,0.00
2018-06-14T02:15:19.242Z,0.00
2018-06-14T02:16:19.228Z,0.00
2018-06-14T02:17:19.215Z,0.00
2018-06-14T02:18:19.186Z,0.00
2018-06-14T02:19:19.174Z,0.00
2018-06-14T02:20:19.158Z,0.00
2018-06-14T02:21:19.150Z,0.00
2018-06-14T02:22:19.126Z,0.00
2018-06-14T02:23:19.109Z,0.00
2018-06-14T02:24:19.100Z,0.00
2018-06-14T02:25:19.077Z,0.00
2018-06-14T02:26:19.077Z,0.00
2018-06-14T02:27:19.051Z,0.00
2018-06-14T02:28:19.032Z,0.00
2018-06-14T02:29:19.016Z,0.00
2018-06-14T02:30:19.007Z,0.00
2018-06-14T02:31:18.989Z,0.00
2018-06-14T02:32:18.976Z,0.00
2018-06-14T02:33:18.946Z,0.00
2018-06-14T02:34:18.939Z,0.00
2018-06-14T02:35:18.921Z,0.00
2018-06-14T02:36:18.901Z,0.00
2018-06-14T02:37:18.902Z,0.00
2018-06-14T02:38:18.867Z,0.00
2018-06-14T02:39:18.851Z,0.00
2018-06-14T02:40:18.835Z,0.00
2018-06-14T02:41:18.817Z,0.00
2018-06-14T02:42:18.810Z,0.00
2018-06-14T02:43:18.822Z,0.00
2018-06-14T02:44:18.773Z,0.00
2018-06-14T02:45:18.756Z,0.00
2018-06-14T02:46:18.743Z,0.00
2018-06-14T02:47:18.721Z,0.00
2018-06-14T02:48:18.709Z,0.00
2018-06-14T02:49:18.692Z,0.00
2018-06-14T02:50:18.676Z,0.00
2018-06-14T02:51:18.659Z,0.00
2018-06-14T02:52:18.641Z,0.00
2018-06-14T02:53:18.630Z,0.00
2018-06-14T02:54:18.612Z,0.00
2018-06-14T02:55:18.595Z,0.00
2018-06-14T02:56:18.580Z,0.00
2018-06-14T02:57:18.564Z,0.00
2018-06-14T02:58:18.541Z,0.00
2018-06-14T02:59:18.529Z,0.00
2018-06-14T03:00:18.510Z,0.00
2018-06-14T03:01:18.487Z,0.00
2018-06-14T03:02:18.478Z,0.00
2018-06-14T03:03:18.467Z,0.00
2018-06-14T03:04:18.439Z,0.00
2018-06-14T03:05:18.430Z,0.00
2018-06-14T03:06:18.409Z,0.00
2018-06-14T03:07:18.395Z,0.00
2018-06-14T03:08:18.385Z,0.00
2018-06-14T03:09:18.355Z,0.00
2018-06-14T03:10:18.342Z,0.00
2018-06-14T03:11:18.337Z,0.00
2018-06-14T03:12:18.312Z,0.00
2018-06-14T03:13:18.291Z,0.00
2018-06-14T03:14:18.280Z,0.00
2018-06-14T03:15:18.256Z,0.00
2018-06-14T03:16:18.249Z,5.63
2018-06-14T03:17:18.224Z,5.63
2018-06-14T03:18:18.208Z,5.63
2018-06-14T03:19:18.199Z,5.63
2018-06-14T03:20:18.181Z,5.63
2018-06-14T03:21:18.165Z,5.63
2018-06-14T03:22:18.147Z,5.63
2018-06-14T03:23:18.130Z,5.63
2018-06-14T03:24:18.111Z,5.63
2018-06-14T03:25:18.102Z,5.63
2018-06-14T03:26:18.079Z,5.63
2018-06-14T03:27:18.062Z,5.63
2018-06-14T03:28:18.051Z,11.25
2018-06-14T03:29:18.067Z,11.25
2018-06-14T03:30:18.008Z,11.25
2018-06-14T03:31:17.997Z,11.25
2018-06-14T03:32:17.978Z,11.25
2018-06-14T03:33:17.962Z,11.25
2018-06-14T03:34:17.943Z,11.25
2018-06-14T03:35:17.924Z,11.25
2018-06-14T03:36:17.911Z,11.25
2018-06-14T03:37:17.909Z,11.25
2018-06-14T03:38:17.880Z,11.25
2018-06-14T03:39:17.857Z,16.88
2018-06-14T03:40:17.844Z,16.88
2018-06-14T03:41:17.828Z,16.88
2018-06-14T03:42:17.808Z,16.88
2018-06-14T03:43:17.786Z,16.88
2018-06-14T03:44:17.777Z,16.88
2018-06-14T03:45:17.760Z,16.88
2018-06-14T03:46:17.742Z,16.88
2018-06-14T03:47:17.732Z,16.88
2018-06-14T03:48:17.707Z,22.50
2018-06-14T03:49:17.696Z,22.50
2018-06-14T03:50:17.676Z,22.50
2018-06-14T03:51:17.659Z,22.50
2018-06-14T03:52:17.642Z,22.50
2018-06-14T03:53:17.620Z,22.50
2018-06-14T03:54:17.607Z,22.50
2018-06-14T03:55:17.592Z,22.50
2018-06-14T03:56:17.576Z,22.50
2018-06-14T03:57:17.556Z,22.50
2018-06-14T03:58:17.573Z,28.13
2018-06-14T03:59:17.525Z,28.13
2018-06-14T04:00:17.512Z,28.13
2018-06-14T04:01:17.490Z,28.13
2018-06-14T04:02:17.480Z,28.13
2018-06-14T04:03:17.458Z,28.13
2018-06-14T04:04:17.442Z,28.13
2018-06-14T04:05:17.419Z,28.13
2018-06-14T04:06:17.407Z,28.13
2018-06-14T04:07:17.391Z,28.13
2018-06-14T04:08:17.375Z,33.75
2018-06-14T04:09:17.356Z,33.75
2018-06-14T04:10:17.350Z,33.75
2018-06-14T04:11:17.372Z,33.75
2018-06-14T04:12:17.309Z,33.75
2018-06-14T04:13:17.285Z,33.75
2018-06-14T04:14:17.272Z,33.75
2018-06-14T04:15:17.359Z,39.38
2018-06-14T04:16:17.241Z,39.38
2018-06-14T04:17:17.248Z,39.38
2018-06-14T04:18:17.203Z,39.38
2018-06-14T04:19:17.196Z,39.38
2018-06-14T04:20:17.171Z,39.38
2018-06-14T04:21:17.257Z,39.38
2018-06-14T04:22:17.142Z,45.00
2018-06-14T04:23:17.154Z,45.00
2018-06-14T04:24:17.107Z,45.00
2018-06-14T04:25:17.097Z,50.63
2018-06-14T04:26:17.078Z,50.63
2018-06-14T04:27:17.162Z,50.63
2018-06-14T04:28:17.044Z,50.63
2018-06-14T04:29:17.031Z,50.63
2018-06-14T04:30:17.012Z,50.63
2018-06-14T04:31:17.000Z,50.63
2018-06-14T04:32:16.977Z,50.63
2018-06-14T04:33:16.965Z,50.63
2018-06-14T04:34:16.945Z,50.63
2018-06-14T04:35:16.930Z,50.63
2018-06-14T04:36:16.907Z,50.63
2018-06-14T04:37:16.898Z,56.25
2018-06-14T04:38:16.879Z,56.25
2018-06-14T04:39:16.926Z,56.25
2018-06-14T04:40:16.845Z,56.25
2018-06-14T04:41:16.835Z,56.25
2018-06-14T04:42:16.813Z,56.25
2018-06-14T04:43:16.799Z,56.25
2018-06-14T04:44:16.781Z,56.25
2018-06-14T04:45:16.765Z,56.25
2018-06-14T04:46:16.745Z,56.25
2018-06-14T04:47:16.733Z,56.25
2018-06-14T04:48:16.723Z,56.25
2018-06-14T04:49:16.691Z,56.25
2018-06-14T04:50:16.693Z,56.25
2018-06-14T04:51:16.668Z,56.25
2018-06-14T04:52:16.648Z,61.88
2018-06-14T04:53:16.639Z,61.88
2018-06-14T04:54:16.620Z,61.88
2018-06-14T04:55:16.597Z,56.25
2018-06-14T04:56:16.591Z,61.88
2018-06-14T04:57:16.566Z,61.88
2018-06-14T04:58:16.550Z,61.88
2018-06-14T04:59:16.534Z,67.50
2018-06-14T05:00:16.517Z,67.50
2018-06-14T05:01:16.508Z,67.50
2018-06-14T05:02:16.482Z,67.50
2018-06-14T05:03:16.469Z,67.50
2018-06-14T05:04:16.458Z,67.50
2018-06-14T05:05:16.436Z,67.50
2018-06-14T05:06:16.417Z,67.50
2018-06-14T05:07:16.408Z,73.13
2018-06-14T05:08:16.391Z,73.13
2018-06-14T05:09:16.376Z,73.13
2018-06-14T05:10:16.359Z,73.13
2018-06-14T05:11:16.343Z,73.13
2018-06-14T05:12:16.325Z,73.13
2018-06-14T05:13:16.308Z,73.13
2018-06-14T05:14:16.285Z,73.13
2018-06-14T05:15:16.270Z,73.13
2018-06-14T05:16:16.260Z,73.13
2018-06-14T05:17:16.251Z,78.75
2018-06-14T05:18:16.236Z,78.75
2018-06-14T05:19:16.212Z,78.75
2018-06-14T05:20:16.201Z,78.75
2018-06-14T05:21:16.174Z,73.13
2018-06-14T05:22:16.163Z,73.13
2018-06-14T05:23:16.145Z,73.13
2018-06-14T05:24:16.132Z,73.13
2018-06-14T05:25:16.116Z,73.13
2018-06-14T05:26:16.101Z,78.75
2018-06-14T05:27:16.078Z,78.75
2018-06-14T05:28:16.064Z,78.75
2018-06-14T05:29:16.053Z,78.75
2018-06-14T05:30:16.040Z,78.75
2018-06-14T05:31:16.024Z,78.75
2018-06-14T05:32:16.010Z,78.75
2018-06-14T05:33:15.985Z,78.75
2018-06-14T05:34:15.972Z,78.75
2018-06-14T05:35:15.958Z,84.38
2018-06-14T05:36:15.946Z,84.38
2018-06-14T05:37:15.930Z,84.38
2018-06-14T05:38:16.024Z,84.38
2018-06-14T05:39:15.896Z,90.00
2018-06-14T05:40:15.893Z,90.00
2018-06-14T05:41:15.874Z,90.00
2018-06-14T05:42:15.878Z,95.63
2018-06-14T05:43:15.840Z,95.63
2018-06-14T05:44:15.821Z,95.63
2018-06-14T05:45:15.818Z,95.63
2018-06-14T05:46:15.792Z,95.63
2018-06-14T05:47:15.774Z,95.63
2018-06-14T05:48:15.757Z,95.63
2018-06-14T05:49:15.741Z,101.25
2018-06-14T05:50:15.735Z,101.25
2018-06-14T05:51:15.715Z,101.25
2018-06-14T05:52:15.706Z,101.25
2018-06-14T05:53:15.683Z,101.25
2018-06-14T05:54:15.677Z,101.25
2018-06-14T05:55:15.664Z,101.25
2018-06-14T05:56:15.641Z,101.25
2018-06-14T05:57:15.628Z,101.25
2018-06-14T05:58:15.608Z,106.88
2018-06-14T05:59:15.593Z,106.88
2018-06-14T06:00:15.580Z,106.88
2018-06-14T06:01:15.561Z,106.88
2018-06-14T06:02:15.549Z,112.50
2018-06-14T06:03:15.542Z,112.50
2018-06-14T06:04:15.525Z,112.50
2018-06-14T06:05:15.517Z,112.50
2018-06-14T06:06:15.497Z,112.50
2018-06-14T06:07:15.481Z,112.50
2018-06-14T06:08:15.490Z,112.50
2018-06-14T06:09:15.449Z,118.13
2018-06-14T06:10:15.433Z,118.13
2018-06-14T06:11:15.417Z,118.13
2018-06-14T06:12:15.401Z,118.13
2018-06-14T06:13:15.384Z,118.13
2018-06-14T06:14:15.372Z,118.13
2018-06-14T06:15:15.363Z,118.13
2018-06-14T06:16:15.349Z,129.38
2018-06-14T06:17:15.330Z,123.75
2018-06-14T06:18:15.462Z,129.38
2018-06-14T06:19:15.301Z,129.38
2018-06-14T06:20:15.293Z,135.00
2018-06-14T06:21:15.271Z,135.00
2018-06-14T06:22:15.363Z,135.00
2018-06-14T06:23:15.239Z,135.00
2018-06-14T06:24:15.324Z,135.00
2018-06-14T06:25:15.210Z,135.00
2018-06-14T06:26:15.318Z,135.00
2018-06-14T06:27:15.187Z,135.00
2018-06-14T06:28:15.268Z,140.63
2018-06-14T06:29:15.154Z,140.63
2018-06-14T06:30:15.184Z,140.63
2018-06-14T06:31:15.120Z,135.00
2018-06-14T06:32:15.110Z,140.63
2018-06-14T06:33:15.167Z,140.63
2018-06-14T06:34:15.082Z,140.63
2018-06-14T06:35:15.067Z,140.63
2018-06-14T06:36:15.063Z,146.25
2018-06-14T06:37:15.038Z,146.25
2018-06-14T06:38:15.031Z,146.25
2018-06-14T06:39:15.030Z,146.25
2018-06-14T06:40:15.003Z,140.63
2018-06-14T06:41:14.992Z,140.63
2018-06-14T06:42:14.973Z,140.63
2018-06-14T06:43:14.957Z,140.63
2018-06-14T06:44:14.954Z,146.25
2018-06-14T06:45:14.932Z,151.88
2018-06-14T06:46:14.919Z,151.88
2018-06-14T06:47:14.899Z,151.88
2018-06-14T06:48:14.889Z,157.50
2018-06-14T06:49:14.868Z,157.50
2018-06-14T06:50:14.855Z,157.50
2018-06-14T06:51:14.845Z,168.75
2018-06-14T06:52:14.830Z,163.13
2018-06-14T06:53:14.826Z,163.13
2018-06-14T06:54:14.811Z,163.13
2018-06-14T06:55:14.792Z,168.75
2018-06-14T06:56:14.779Z,168.75
2018-06-14T06:57:14.767Z,174.38
2018-06-14T06:58:14.758Z,174.38
2018-06-14T06:59:14.747Z,174.38
2018-06-14T07:00:14.729Z,180.00
2018-06-14T07:01:14.714Z,180.00
2018-06-14T07:02:14.696Z,185.63
2018-06-14T07:03:14.684Z,185.63
2018-06-14T07:04:14.671Z,180.00
2018-06-14T07:05:14.660Z,185.63
2018-06-14T07:06:14.721Z,185.63
2018-06-14T07:07:14.637Z,191.25
2018-06-14T07:08:14.621Z,196.88
2018-06-14T07:09:14.605Z,191.25
2018-06-14T07:10:14.589Z,191.25
2018-06-14T07:11:14.583Z,191.25
2018-06-14T07:12:14.567Z,196.88
2018-06-14T07:13:14.560Z,196.88
2018-06-14T07:14:14.543Z,191.25
2018-06-14T07:15:14.524Z,191.25
2018-06-14T07:16:14.518Z,191.25
2018-06-14T07:17:14.503Z,191.25
2018-06-14T07:18:14.494Z,191.25
2018-06-14T07:19:14.481Z,196.88
2018-06-14T07:20:14.469Z,202.50
2018-06-14T07:21:14.453Z,202.50
2018-06-14T07:22:14.443Z,202.50
2018-06-14T07:23:14.431Z,208.13
2018-06-14T07:24:14.417Z,213.75
2018-06-14T07:25:14.417Z,208.13
2018-06-14T07:26:14.389Z,213.75
2018-06-14T07:27:14.376Z,213.75
2018-06-14T07:28:14.370Z,213.75
2018-06-14T07:29:14.366Z,219.38
2018-06-14T07:30:14.336Z,219.38
2018-06-14T07:31:14.328Z,225.00
2018-06-14T07:32:14.318Z,219.38
2018-06-14T07:33:14.309Z,225.00
2018-06-14T07:34:14.292Z,230.63
2018-06-14T07:35:14.280Z,225.00
2018-06-14T07:36:14.277Z,225.00
2018-06-14T07:37:14.282Z,225.00
2018-06-14T07:38:14.242Z,230.63
2018-06-14T07:39:14.229Z,230.63
2018-06-14T07:40:14.219Z,236.25
2018-06-14T07:41:14.208Z,236.25
2018-06-14T07:42:14.197Z,241.88
2018-06-14T07:43:14.198Z,241.88
2018-06-14T07:44:14.168Z,247.50
2018-06-14T07:45:14.258Z,247.50
2018-06-14T07:46:14.147Z,253.13
2018-06-14T07:47:14.140Z,258.75
2018-06-14T07:48:14.128Z,258.75
2018-06-14T07:49:14.183Z,253.13
2018-06-14T07:50:14.100Z,253.13
2018-06-14T07:51:14.096Z,253.13
2018-06-14T07:52:14.081Z,253.13
2018-06-14T07:53:14.168Z,253.13
2018-06-14T07:54:14.095Z,247.50
2018-06-14T07:55:14.054Z,247.50
2018-06-14T07:56:14.035Z,247.50
2018-06-14T07:57:14.019Z,258.75
2018-06-14T07:58:14.015Z,264.38
2018-06-14T07:59:14.013Z,264.38
2018-06-14T08:00:13.994Z,264.38
2018-06-14T08:01:13.973Z,258.75
2018-06-14T08:02:13.962Z,258.75
2018-06-14T08:03:13.958Z,258.75
2018-06-14T08:04:13.941Z,270.00
2018-06-14T08:05:13.933Z,275.63
2018-06-14T08:06:13.919Z,275.63
2018-06-14T08:07:13.913Z,264.38
2018-06-14T08:08:13.897Z,270.00
2018-06-14T08:09:13.883Z,270.00
2018-06-14T08:10:13.878Z,281.25
2018-06-14T08:11:13.870Z,281.25
2018-06-14T08:12:13.921Z,281.25
2018-06-14T08:13:13.842Z,281.25
2018-06-14T08:14:13.832Z,281.25
2018-06-14T08:15:13.826Z,281.25
2018-06-14T08:16:13.813Z,292.50
2018-06-14T08:17:13.794Z,292.50
2018-06-14T08:18:13.790Z,298.13
2018-06-14T08:19:13.778Z,281.25
2018-06-14T08:20:13.775Z,286.88
2018-06-14T08:21:13.762Z,292.50
2018-06-14T08:22:13.740Z,292.50
2018-06-14T08:23:13.742Z,286.88
2018-06-14T08:24:13.724Z,292.50
2018-06-14T08:25:13.718Z,292.50
2018-06-14T08:26:13.708Z,298.13
2018-06-14T08:27:13.692Z,292.50
2018-06-14T08:28:13.680Z,292.50
2018-06-14T08:29:13.675Z,236.25
2018-06-14T08:30:13.660Z,275.63
2018-06-14T08:31:13.647Z,309.38
2018-06-14T08:32:13.634Z,315.00
2018-06-14T08:33:13.629Z,309.38
2018-06-14T08:34:13.621Z,292.50
2018-06-14T08:35:13.612Z,298.13
2018-06-14T08:36:13.597Z,303.75
2018-06-14T08:37:13.600Z,298.13
2018-06-14T08:38:13.580Z,292.50
2018-06-14T08:39:13.573Z,292.50
2018-06-14T08:40:13.561Z,303.75
2018-06-14T08:41:13.544Z,303.75
2018-06-14T08:42:13.539Z,326.25
2018-06-14T08:43:13.526Z,315.00
2018-06-14T08:44:13.518Z,309.38
2018-06-14T08:45:13.512Z,309.38
2018-06-14T08:46:13.490Z,309.38
2018-06-14T08:47:13.487Z,303.75
2018-06-14T08:48:13.480Z,315.00
2018-06-14T08:49:13.464Z,320.63
2018-06-14T08:50:13.451Z,315.00
2018-06-14T08:51:13.442Z,315.00
2018-06-14T08:52:13.432Z,354.38
2018-06-14T08:53:13.428Z,331.88
2018-06-14T08:54:13.416Z,371.25
2018-06-14T08:55:13.402Z,348.75
2018-06-14T08:56:13.397Z,354.38
2018-06-14T08:57:13.383Z,354.38
2018-06-14T08:58:13.376Z,354.38
2018-06-14T08:59:13.371Z,354.38
2018-06-14T09:00:13.362Z,348.75
2018-06-14T09:01:13.348Z,241.88
2018-06-14T09:02:13.342Z,236.25
2018-06-14T09:03:13.333Z,365.63
2018-06-14T09:04:13.323Z,376.88
2018-06-14T09:05:13.310Z,258.75
2018-06-14T09:06:13.300Z,466.88
2018-06-14T09:07:13.302Z,590.63
2018-06-14T09:08:13.287Z,264.38
2018-06-14T09:09:13.275Z,247.50
2018-06-14T09:10:13.270Z,348.75
2018-06-14T09:11:13.257Z,241.88
2018-06-14T09:12:13.247Z,483.75
2018-06-14T09:13:13.241Z,1293.75
2018-06-14T09:14:13.274Z,1395.00
2018-06-14T09:15:13.234Z,213.75
2018-06-14T09:16:13.219Z,191.25
2018-06-14T09:17:13.206Z,191.25
2018-06-14T09:18:13.202Z,230.63
2018-06-14T09:19:13.188Z,225.00
2018-06-14T09:20:13.184Z,213.75
2018-06-14T09:21:13.166Z,793.13
2018-06-14T09:22:13.158Z,1136.25
2018-06-14T09:23:13.154Z,1237.50
2018-06-14T09:24:13.142Z,236.25
2018-06-14T09:25:13.142Z,1333.13
2018-06-14T09:26:13.122Z,1091.25
2018-06-14T09:27:13.110Z,1237.50
2018-06-14T09:28:13.108Z,1136.25
2018-06-14T09:29:13.097Z,1085.63
2018-06-14T09:30:13.085Z,922.50
2018-06-14T09:31:13.087Z,765.00
2018-06-14T09:32:13.081Z,331.88
2018-06-14T09:33:13.065Z,230.63
2018-06-14T09:34:13.055Z,1029.38
2018-06-14T09:35:13.053Z,1164.38
2018-06-14T09:36:13.043Z,1153.13
2018-06-14T09:37:13.030Z,990.00
2018-06-14T09:38:13.018Z,1181.25
2018-06-14T09:39:13.017Z,1136.25
2018-06-14T09:40:13.015Z,1091.25
2018-06-14T09:41:13.001Z,1119.38
2018-06-14T09:42:12.992Z,1198.13
2018-06-14T09:43:12.987Z,1153.13
2018-06-14T09:44:12.982Z,1057.50
2018-06-14T09:45:12.982Z,1130.63
2018-06-14T09:46:12.968Z,742.50
2018-06-14T09:47:12.956Z,1040.63
2018-06-14T09:48:12.956Z,281.25
2018-06-14T09:49:12.947Z,258.75
2018-06-14T09:50:12.939Z,236.25
2018-06-14T09:51:12.934Z,236.25
2018-06-14T09:52:12.931Z,253.13
2018-06-14T09:53:12.921Z,202.50
2018-06-14T09:54:12.905Z,202.50
2018-06-14T09:55:12.912Z,298.13
2018-06-14T09:56:12.903Z,360.00
2018-06-14T09:57:12.888Z,354.38
2018-06-14T09:58:12.882Z,309.38
2018-06-14T09:59:12.876Z,219.38
2018-06-14T10:00:12.871Z,230.63
2018-06-14T10:01:12.862Z,253.13
2018-06-14T10:02:12.855Z,264.38
2018-06-14T10:03:12.851Z,264.38
2018-06-14T10:04:12.839Z,303.75
2018-06-14T10:05:12.827Z,298.13
2018-06-14T10:06:12.845Z,174.38
2018-06-14T10:07:12.821Z,168.75
2018-06-14T10:08:12.819Z,174.38
2018-06-14T10:09:12.796Z,196.88
2018-06-14T10:10:12.790Z,174.38
2018-06-14T10:11:12.779Z,219.38
2018-06-14T10:12:12.772Z,371.25
2018-06-14T10:13:12.763Z,275.63
2018-06-14T10:14:12.762Z,219.38
2018-06-14T10:15:12.744Z,208.13
2018-06-14T10:16:12.786Z,219.38
2018-06-14T10:17:12.727Z,241.88
2018-06-14T10:18:12.827Z,219.38
2018-06-14T10:19:12.718Z,213.75
2018-06-14T10:20:12.704Z,180.00
2018-06-14T10:21:12.701Z,180.00
2018-06-14T10:22:12.683Z,174.38
2018-06-14T10:23:12.682Z,168.75
2018-06-14T10:24:12.669Z,202.50
2018-06-14T10:25:12.653Z,174.38
2018-06-14T10:26:12.699Z,168.75
2018-06-14T10:27:12.640Z,163.13
2018-06-14T10:28:12.629Z,208.13
2018-06-14T10:29:12.622Z,270.00
2018-06-14T10:30:12.658Z,191.25
2018-06-14T10:31:12.603Z,168.75
2018-06-14T10:32:12.592Z,168.75
2018-06-14T10:33:12.587Z,180.00
2018-06-14T10:34:12.584Z,168.75
2018-06-14T10:35:12.572Z,191.25
2018-06-14T10:36:12.562Z,180.00
2018-06-14T10:37:12.582Z,258.75
2018-06-14T10:38:12.535Z,258.75
2018-06-14T10:39:12.531Z,365.63
2018-06-14T10:40:12.528Z,298.13
2018-06-14T10:41:12.555Z,230.63
2018-06-14T10:42:12.497Z,219.38
2018-06-14T10:43:12.488Z,247.50
2018-06-14T10:44:12.478Z,264.38
2018-06-14T10:45:12.470Z,247.50
2018-06-14T10:46:12.457Z,253.13
2018-06-14T10:47:12.451Z,354.38
2018-06-14T10:48:12.448Z,236.25
2018-06-14T10:49:12.434Z,241.88
2018-06-14T10:50:12.428Z,281.25
2018-06-14T10:51:12.412Z,354.38
2018-06-14T10:52:12.405Z,337.50
2018-06-14T10:53:12.403Z,236.25
2018-06-14T10:54:12.390Z,241.88
2018-06-14T10:55:12.380Z,309.38
2018-06-14T10:56:12.370Z,376.88
2018-06-14T10:57:12.358Z,371.25
2018-06-14T10:58:12.358Z,360.00
2018-06-14T10:59:12.345Z,337.50
2018-06-14T11:00:12.332Z,343.13
2018-06-14T11:01:12.336Z,331.88
2018-06-14T11:02:12.323Z,354.38
2018-06-14T11:03:12.310Z,286.88
2018-06-14T11:04:12.296Z,309.38
2018-06-14T11:05:12.291Z,202.50
2018-06-14T11:06:12.288Z,202.50
2018-06-14T11:07:12.279Z,213.75
2018-06-14T11:08:12.268Z,337.50
2018-06-14T11:09:12.267Z,320.63
2018-06-14T11:10:12.248Z,320.63
2018-06-14T11:11:12.250Z,337.50
2018-06-14T11:12:12.238Z,326.25
2018-06-14T11:13:12.236Z,309.38
2018-06-14T11:14:12.215Z,315.00
2018-06-14T11:15:12.213Z,315.00
2018-06-14T11:16:12.200Z,253.13
2018-06-14T11:17:12.194Z,275.63
2018-06-14T11:18:12.183Z,208.13
2018-06-14T11:19:12.177Z,247.50
2018-06-14T11:20:12.171Z,309.38
2018-06-14T11:21:12.151Z,320.63
2018-06-14T11:22:12.148Z,331.88
2018-06-14T11:23:12.149Z,320.63
2018-06-14T11:24:12.133Z,331.88
2018-06-14T11:25:12.123Z,343.13
2018-06-14T11:26:12.123Z,331.88
2018-06-14T11:27:12.114Z,320.63
2018-06-14T11:28:12.100Z,298.13
2018-06-14T11:29:12.094Z,292.50
2018-06-14T11:30:12.083Z,286.88
2018-06-14T11:31:12.075Z,309.38
2018-06-14T11:32:12.063Z,247.50
2018-06-14T11:33:12.058Z,253.13
2018-06-14T11:34:12.048Z,309.38
2018-06-14T11:35:12.047Z,241.88
2018-06-14T11:36:12.035Z,213.75
2018-06-14T11:37:12.029Z,225.00
2018-06-14T11:38:12.021Z,303.75
2018-06-14T11:39:12.012Z,230.63
2018-06-14T11:40:12.000Z,241.88
2018-06-14T11:41:11.994Z,236.25
2018-06-14T11:42:11.993Z,219.38
2018-06-14T11:43:11.978Z,230.63
2018-06-14T11:44:11.977Z,196.88
2018-06-14T11:45:11.964Z,202.50
2018-06-14T11:46:11.958Z,225.00
2018-06-14T11:47:11.943Z,264.38
2018-06-14T11:48:11.969Z,236.25
2018-06-14T11:49:11.940Z,258.75
2018-06-14T11:50:11.925Z,270.00
2018-06-14T11:51:11.903Z,247.50
2018-06-14T11:52:11.904Z,230.63
2018-06-14T11:53:11.887Z,236.25
2018-06-14T11:54:11.964Z,241.88
2018-06-14T11:55:11.876Z,264.38
2018-06-14T11:56:11.875Z,258.75
2018-06-14T11:57:11.863Z,253.13
2018-06-14T11:58:11.844Z,247.50
2018-06-14T11:59:11.835Z,253.13
2018-06-14T12:00:11.834Z,258.75
2018-06-14T12:01:11.858Z,264.38
2018-06-14T12:02:11.808Z,264.38
2018-06-14T12:03:11.801Z,258.75
2018-06-14T12:04:11.788Z,258.75
2018-06-14T12:05:11.786Z,253.13
2018-06-14T12:06:11.789Z,253.13
2018-06-14T12:07:11.769Z,253.13
2018-06-14T12:08:11.756Z,247.50
2018-06-14T12:09:11.753Z,247.50
2018-06-14T12:10:11.743Z,253.13
2018-06-14T12:11:11.728Z,241.88
2018-06-14T12:12:11.731Z,236.25
2018-06-14T12:13:11.721Z,236.25
2018-06-14T12:14:11.711Z,213.75
2018-06-14T12:15:11.712Z,196.88
2018-06-14T12:16:11.692Z,202.50
2018-06-14T12:17:11.683Z,219.38
2018-06-14T12:18:11.673Z,219.38
2018-06-14T12:19:11.668Z,219.38
2018-06-14T12:20:11.658Z,241.88
2018-06-14T12:21:11.651Z,230.63
2018-06-14T12:22:11.643Z,236.25
2018-06-14T12:23:11.632Z,230.63
2018-06-14T12:24:11.624Z,236.25
2018-06-14T12:25:11.614Z,213.75
2018-06-14T12:26:11.610Z,202.50
2018-06-14T12:27:11.646Z,202.50
2018-06-14T12:28:11.584Z,208.13
2018-06-14T12:29:11.582Z,225.00
2018-06-14T12:30:11.573Z,208.13
2018-06-14T12:31:11.563Z,202.50
2018-06-14T12:32:11.556Z,202.50
2018-06-14T12:33:11.544Z,213.75
2018-06-14T12:34:11.541Z,219.38
2018-06-14T12:35:11.592Z,208.13
2018-06-14T12:36:11.518Z,208.13
2018-06-14T12:37:11.514Z,202.50
2018-06-14T12:38:11.513Z,202.50
2018-06-14T12:39:11.499Z,219.38
2018-06-14T12:40:11.484Z,253.13
2018-06-14T12:41:11.582Z,225.00
2018-06-14T12:42:11.478Z,236.25
2018-06-14T12:43:11.515Z,219.38
2018-06-14T12:44:11.508Z,236.25
2018-06-14T12:45:11.452Z,225.00